Round Pond, Maine
Current Conditions -  °F | °C
As of 8:53 AM on Monday 20 Oct 2014 (Local Time) from KIWI Reporting Station
Clear Clear  
Wind Chill: 39°   Ceiling: Unl
Heat Index: 43°   Visibility: 10mi
Dew Point: 27°   Wind: 6mph
Humidity: 53%   Direction: 260°W
Pressure: 29.99"   Gusts: NA
Location:  43.95°N, 69.46°W
Report Text: KIWI 201253Z AUTO 26005KT 10SM CLR 06/M03 A2999 RMK AO2 SLP155 T00611028
Loading
Personal Weather Stations






























Interactive Weather Map
Tropical Storm Tracking
New forecast layout! Learn more

10-Day Weather Forecast

Advertisements
Track Severe Weather on mobile